createdAt,value
2022-08-26T00:00:11.367Z,5.57
2022-08-26T00:03:01.591Z,5.03
2022-08-26T00:05:51.800Z,8.43
2022-08-26T00:08:41.617Z,5.83
2022-08-26T00:11:30.022Z,9.47
2022-08-26T00:14:18.488Z,5.57
2022-08-26T00:17:08.640Z,9.23
2022-08-26T00:19:57.474Z,9.03
2022-08-26T00:22:45.952Z,5.03
2022-08-26T00:25:35.804Z,7.80
2022-08-26T00:28:31.010Z,9.20
2022-08-26T00:31:19.580Z,6.67
2022-08-26T00:34:09.935Z,7.57
2022-08-26T00:36:59.805Z,6.47
2022-08-26T00:39:48.600Z,7.20
2022-08-26T00:42:38.765Z,6.70
2022-08-26T00:45:46.813Z,6.40
2022-08-26T00:48:35.635Z,9.17
2022-08-26T00:51:29.960Z,6.57
2022-08-26T00:54:18.597Z,6.90
2022-08-26T00:57:16.449Z,7.10
2022-08-26T01:00:10.563Z,7.60
2022-08-26T01:03:00.756Z,5.73
2022-08-26T01:05:49.291Z,5.93
2022-08-26T01:08:39.503Z,6.87
2022-08-26T01:11:27.908Z,8.30
2022-08-26T01:14:16.622Z,7.33
2022-08-26T01:17:09.146Z,8.40
2022-08-26T01:20:01.280Z,5.97
2022-08-26T01:22:56.055Z,10.53
2022-08-26T01:25:46.694Z,7.33
2022-08-26T01:28:35.778Z,7.10
2022-08-26T01:31:26.719Z,7.63
2022-08-26T01:34:18.702Z,7.10
2022-08-26T01:37:11.737Z,8.37
2022-08-26T01:40:07.420Z,6.43
2022-08-26T01:42:56.180Z,7.00
2022-08-26T01:45:44.897Z,5.87
2022-08-26T01:48:33.995Z,7.50
2022-08-26T01:51:24.327Z,8.77
2022-08-26T01:54:13.855Z,7.40
2022-08-26T01:57:04.074Z,8.57
2022-08-26T01:59:52.555Z,7.80
2022-08-26T02:02:41.649Z,7.83
2022-08-26T02:05:32.036Z,7.57
2022-08-26T02:08:24.576Z,8.23
2022-08-26T02:11:13.505Z,8.87
2022-08-26T02:14:06.491Z,7.70
2022-08-26T02:16:55.320Z,7.37
2022-08-26T02:19:50.167Z,8.00
2022-08-26T02:22:40.383Z,5.17
2022-08-26T02:25:32.084Z,11.47
2022-08-26T02:28:20.627Z,6.37
2022-08-26T02:31:10.645Z,7.20
2022-08-26T02:34:10.791Z,8.13
2022-08-26T02:36:59.517Z,6.93
2022-08-26T02:39:48.040Z,6.23
2022-08-26T02:42:37.480Z,10.37
2022-08-26T02:45:27.460Z,8.00
2022-08-26T02:48:19.604Z,6.60
2022-08-26T02:51:08.093Z,8.27
2022-08-26T02:53:56.890Z,6.13
2022-08-26T02:56:45.742Z,7.23
2022-08-26T02:59:35.942Z,6.80
2022-08-26T03:02:24.617Z,5.83
2022-08-26T03:05:15.419Z,6.83
2022-08-26T03:08:05.108Z,8.37
2022-08-26T03:10:53.590Z,5.97
2022-08-26T03:13:42.228Z,6.20
2022-08-26T03:16:33.673Z,9.53
2022-08-26T03:19:22.889Z,6.63
2022-08-26T03:22:14.501Z,8.47
2022-08-26T03:25:03.592Z,6.67
2022-08-26T03:27:52.330Z,7.97
2022-08-26T03:30:39.875Z,6.53
2022-08-26T03:33:34.008Z,7.33
2022-08-26T03:36:22.628Z,7.87
2022-08-26T03:39:14.476Z,8.93
2022-08-26T03:42:03.025Z,6.57
2022-08-26T03:44:52.042Z,8.40
2022-08-26T03:47:40.598Z,10.33
2022-08-26T03:50:29.356Z,7.80
2022-08-26T03:53:23.772Z,8.97
2022-08-26T03:56:14.484Z,9.77
2022-08-26T03:59:02.927Z,8.90
2022-08-26T04:01:51.486Z,8.30
2022-08-26T04:04:40.221Z,9.17
2022-08-26T04:07:28.767Z,8.13
2022-08-26T04:10:28.582Z,9.00
2022-08-26T04:13:19.217Z,6.77
2022-08-26T04:16:08.019Z,9.93
2022-08-26T04:18:59.056Z,9.53
2022-08-26T04:21:48.278Z,7.63
2022-08-26T04:24:39.510Z,8.17
2022-08-26T04:27:28.037Z,8.77
2022-08-26T04:30:18.186Z,9.23
2022-08-26T04:33:13.025Z,11.77
2022-08-26T04:36:02.595Z,7.70
2022-08-26T04:38:51.515Z,8.40
2022-08-26T04:41:41.938Z,10.23
2022-08-26T04:44:31.107Z,9.83
2022-08-26T04:47:21.013Z,10.53
2022-08-26T04:50:10.956Z,13.10
2022-08-26T04:52:59.860Z,10.47
2022-08-26T04:55:48.459Z,12.60
2022-08-26T04:58:37.331Z,13.60
2022-08-26T05:01:25.910Z,16.97
2022-08-26T05:04:16.305Z,15.03
2022-08-26T05:07:08.011Z,12.93
2022-08-26T05:09:58.189Z,15.97
2022-08-26T05:12:46.670Z,13.70
2022-08-26T05:15:35.723Z,11.93
2022-08-26T05:18:25.828Z,12.17
2022-08-26T05:21:20.177Z,17.67
2022-08-26T05:24:10.158Z,13.87
2022-08-26T05:26:58.961Z,14.87
2022-08-26T05:29:54.632Z,13.73
2022-08-26T05:32:43.763Z,13.23
2022-08-26T05:35:34.141Z,14.87
2022-08-26T05:38:24.045Z,19.40
2022-08-26T05:41:18.929Z,17.63
2022-08-26T05:44:10.397Z,16.67
2022-08-26T05:46:58.858Z,15.77
2022-08-26T05:49:51.541Z,13.80
2022-08-26T05:52:40.328Z,14.10
2022-08-26T05:55:30.270Z,15.30
2022-08-26T05:58:20.143Z,14.80
2022-08-26T06:01:10.627Z,14.10
2022-08-26T06:04:02.019Z,11.17
2022-08-26T06:06:50.588Z,11.47
2022-08-26T06:09:39.118Z,11.73
2022-08-26T06:12:28.905Z,11.30
2022-08-26T06:15:17.644Z,15.03
2022-08-26T06:18:06.792Z,14.67
2022-08-26T06:20:57.663Z,12.70
2022-08-26T06:24:05.145Z,10.27
2022-08-26T06:26:54.977Z,14.27
2022-08-26T06:29:44.973Z,12.90
2022-08-26T06:32:33.436Z,12.40
2022-08-26T06:35:21.947Z,11.07
2022-08-26T06:38:10.960Z,11.07
2022-08-26T06:40:59.883Z,10.43
2022-08-26T06:43:48.514Z,10.37
2022-08-26T06:46:38.328Z,11.07
2022-08-26T06:49:27.780Z,11.43
2022-08-26T06:52:21.179Z,11.07
2022-08-26T06:55:12.952Z,11.43
2022-08-26T06:58:01.452Z,11.63
2022-08-26T07:00:52.997Z,13.27
2022-08-26T07:03:42.806Z,10.10
2022-08-26T07:06:38.050Z,11.47
2022-08-26T07:09:30.305Z,11.87
2022-08-26T07:12:19.084Z,11.03
2022-08-26T07:15:08.602Z,13.00
2022-08-26T07:17:57.146Z,12.33
2022-08-26T07:20:47.097Z,15.13
2022-08-26T07:23:36.248Z,13.40
2022-08-26T07:26:26.409Z,10.60
2022-08-26T07:29:17.289Z,11.63
2022-08-26T07:32:06.480Z,11.10
2022-08-26T07:34:54.965Z,11.93
2022-08-26T07:37:44.787Z,15.17
2022-08-26T07:40:34.025Z,13.27
2022-08-26T07:43:22.589Z,12.20
2022-08-26T07:46:16.466Z,10.83
2022-08-26T07:49:05.718Z,12.97
2022-08-26T07:51:55.639Z,11.73
2022-08-26T07:54:45.453Z,13.97
2022-08-26T07:57:34.540Z,11.37
2022-08-26T08:00:23.566Z,13.90
2022-08-26T08:03:12.588Z,9.87
2022-08-26T08:06:02.596Z,11.30
2022-08-26T08:08:51.652Z,10.60
2022-08-26T08:11:41.628Z,13.13
2022-08-26T08:14:32.000Z,12.77
2022-08-26T08:17:20.495Z,12.30
2022-08-26T08:20:11.069Z,11.90
2022-08-26T08:22:59.826Z,9.97
2022-08-26T08:25:49.076Z,12.70
2022-08-26T08:28:39.096Z,10.60
2022-08-26T08:31:56.176Z,11.97
2022-08-26T08:34:38.358Z,10.73
2022-08-26T08:37:26.872Z,10.70
2022-08-26T08:40:18.088Z,9.73
2022-08-26T08:43:08.128Z,9.77
2022-08-26T08:46:00.238Z,10.87
2022-08-26T08:48:52.198Z,10.90
2022-08-26T08:51:46.795Z,16.00
2022-08-26T08:54:35.312Z,9.27
2022-08-26T08:57:29.068Z,13.43
2022-08-26T09:00:19.330Z,10.83
2022-08-26T09:03:13.284Z,9.57
2022-08-26T09:06:01.779Z,9.40
2022-08-26T09:08:51.441Z,12.63
2022-08-26T09:11:39.900Z,9.20
2022-08-26T09:14:29.173Z,11.13
2022-08-26T09:17:28.004Z,11.13
2022-08-26T09:20:26.392Z,11.00
2022-08-26T09:23:15.098Z,11.13
2022-08-26T09:26:15.593Z,8.30
2022-08-26T09:29:08.687Z,7.77
2022-08-26T09:32:19.339Z,11.73
2022-08-26T09:35:12.099Z,8.23
2022-08-26T09:38:02.003Z,11.63
2022-08-26T09:40:58.965Z,8.67
2022-08-26T09:44:07.821Z,13.47
2022-08-26T09:47:05.064Z,8.30
2022-08-26T09:50:00.073Z,9.47
2022-08-26T09:52:48.805Z,9.17
2022-08-26T09:55:41.853Z,9.10
2022-08-26T09:58:34.737Z,10.47
2022-08-26T10:01:31.341Z,9.83
2022-08-26T10:04:22.990Z,7.30
2022-08-26T10:07:11.530Z,7.10
2022-08-26T10:10:00.030Z,10.90
2022-08-26T10:13:05.519Z,10.13
2022-08-26T10:16:01.302Z,9.77
2022-08-26T10:18:56.865Z,9.27
2022-08-26T10:21:54.063Z,7.13
2022-08-26T10:24:47.721Z,5.97
2022-08-26T10:27:50.972Z,6.17
2022-08-26T10:30:47.924Z,5.03
2022-08-26T10:33:36.406Z,7.33
2022-08-26T10:37:10.520Z,4.93
2022-08-26T10:39:56.944Z,12.63
2022-08-26T10:42:50.995Z,4.77
2022-08-26T10:45:48.832Z,9.53
2022-08-26T10:48:43.643Z,5.47
2022-08-26T10:51:36.477Z,4.40
2022-08-26T10:54:28.649Z,7.93
2022-08-26T10:57:20.337Z,6.33
2022-08-26T11:00:27.596Z,6.90
2022-08-26T11:03:36.406Z,7.47
2022-08-26T11:06:28.183Z,7.20
2022-08-26T11:09:44.751Z,5.57
2022-08-26T11:12:57.244Z,6.10
2022-08-26T11:16:01.267Z,7.50
2022-08-26T11:18:54.649Z,6.00
2022-08-26T11:21:49.505Z,6.80
2022-08-26T11:25:02.499Z,4.73
2022-08-26T11:27:57.636Z,5.07
2022-08-26T11:30:56.968Z,10.03
2022-08-26T11:33:50.989Z,9.43
2022-08-26T11:36:59.686Z,6.13
2022-08-26T11:39:54.475Z,9.20
2022-08-26T11:42:45.287Z,5.20
2022-08-26T11:45:36.105Z,6.27
2022-08-26T11:48:33.167Z,5.40
2022-08-26T11:51:25.142Z,6.97
2022-08-26T11:54:15.972Z,8.40
2022-08-26T11:57:09.407Z,6.10
2022-08-26T12:00:00.158Z,7.93
2022-08-26T12:02:49.021Z,7.83
2022-08-26T12:05:45.206Z,7.30
2022-08-26T12:08:36.650Z,6.30
2022-08-26T12:11:26.752Z,8.17
2022-08-26T12:14:19.318Z,6.47
2022-08-26T12:17:24.075Z,8.87
2022-08-26T12:20:45.684Z,7.90
2022-08-26T12:23:43.282Z,8.90
2022-08-26T12:26:33.535Z,7.70
2022-08-26T12:29:27.584Z,6.43
2022-08-26T12:32:17.707Z,7.97
2022-08-26T12:35:08.817Z,9.03
2022-08-26T12:37:57.590Z,7.07
2022-08-26T12:40:47.630Z,7.33
2022-08-26T12:43:42.407Z,7.77
2022-08-26T12:46:30.974Z,9.43
2022-08-26T12:49:20.009Z,7.50
2022-08-26T12:52:10.558Z,7.53
2022-08-26T12:55:01.076Z,8.52
2022-08-26T12:57:51.125Z,10.83
2022-08-26T13:00:41.177Z,12.50
2022-08-26T13:03:43.745Z,12.00
2022-08-26T13:06:32.532Z,6.75
2022-08-26T13:09:31.306Z,8.40
2022-08-26T13:12:30.979Z,11.85
2022-08-26T13:15:20.846Z,8.68
2022-08-26T13:18:09.290Z,9.18
2022-08-26T13:20:57.772Z,10.38
2022-08-26T13:23:47.460Z,6.38
2022-08-26T13:26:36.171Z,9.68
2022-08-26T13:29:24.656Z,9.45
2022-08-26T13:32:14.823Z,7.82
2022-08-26T13:35:05.599Z,7.50
2022-08-26T13:37:56.719Z,6.50
2022-08-26T13:40:45.262Z,8.13
2022-08-26T13:43:34.151Z,10.32
2022-08-26T13:46:22.862Z,9.18
2022-08-26T13:49:12.777Z,8.60
2022-08-26T13:52:03.592Z,11.20
2022-08-26T13:54:52.087Z,10.82
2022-08-26T13:57:42.407Z,8.90
2022-08-26T14:00:33.361Z,8.53
2022-08-26T14:03:22.780Z,6.10
2022-08-26T14:06:12.841Z,9.43
2022-08-26T14:09:01.361Z,12.33
2022-08-26T14:11:54.392Z,12.97
2022-08-26T14:14:43.489Z,10.10
2022-08-26T14:17:32.728Z,9.67
2022-08-26T14:20:24.793Z,7.63
2022-08-26T14:23:15.304Z,8.80
2022-08-26T14:26:08.014Z,8.67
2022-08-26T14:28:56.656Z,8.60
2022-08-26T14:31:45.374Z,6.77
2022-08-26T14:34:33.958Z,8.07
2022-08-26T14:37:22.790Z,9.18
2022-08-26T14:40:13.965Z,5.77
2022-08-26T14:43:02.461Z,6.20
2022-08-26T14:45:52.205Z,6.55
2022-08-26T14:48:40.757Z,9.95
2022-08-26T14:51:29.244Z,7.85
2022-08-26T14:54:20.779Z,6.53
2022-08-26T14:57:12.438Z,6.63
2022-08-26T15:00:00.943Z,6.43
2022-08-26T15:02:49.639Z,6.07
2022-08-26T15:05:39.821Z,8.40
2022-08-26T15:08:28.380Z,6.43
2022-08-26T15:11:18.304Z,8.25
2022-08-26T15:14:08.127Z,6.43
2022-08-26T15:17:07.511Z,7.43
2022-08-26T15:19:55.971Z,5.50
2022-08-26T15:22:44.472Z,8.13
2022-08-26T15:25:33.127Z,5.17
2022-08-26T15:28:21.636Z,6.63
2022-08-26T15:31:12.234Z,5.20
2022-08-26T15:34:02.574Z,6.80
2022-08-26T15:36:51.093Z,8.10
2022-08-26T15:39:40.810Z,10.47
2022-08-26T15:42:29.279Z,13.07
2022-08-26T15:45:24.797Z,16.83
2022-08-26T15:48:16.230Z,14.50
2022-08-26T15:51:05.288Z,14.20
2022-08-26T15:53:56.099Z,16.60
2022-08-26T15:56:44.748Z,14.50
2022-08-26T15:59:33.293Z,14.97
2022-08-26T16:02:22.022Z,14.00
2022-08-26T16:05:12.487Z,20.83
2022-08-26T16:08:01.872Z,11.97
2022-08-26T16:10:51.256Z,11.20
2022-08-26T16:13:40.289Z,10.20
2022-08-26T16:16:28.821Z,10.47
2022-08-26T16:19:17.423Z,9.47
2022-08-26T16:22:09.321Z,10.67
2022-08-26T16:24:58.460Z,10.97
2022-08-26T16:27:46.951Z,11.50
2022-08-26T16:30:35.872Z,11.53
2022-08-26T16:33:29.217Z,11.63
2022-08-26T16:36:18.452Z,17.63
2022-08-26T16:39:08.942Z,12.57
2022-08-26T16:41:57.651Z,12.87
2022-08-26T16:44:46.435Z,16.23
2022-08-26T16:47:34.986Z,15.17
2022-08-26T16:50:24.092Z,14.30
2022-08-26T16:56:08.070Z,16.03
2022-08-26T16:58:56.556Z,18.17
2022-08-26T17:01:45.167Z,16.73
2022-08-26T17:04:33.806Z,21.07
2022-08-26T17:07:22.278Z,13.50
2022-08-26T17:10:12.886Z,14.10
2022-08-26T17:13:02.810Z,14.03
2022-08-26T17:15:55.064Z,15.60
2022-08-26T17:18:48.398Z,11.80
2022-08-26T17:21:37.214Z,12.63
2022-08-26T17:24:25.655Z,11.87
2022-08-26T17:27:14.647Z,16.17
2022-08-26T17:30:05.887Z,12.13
2022-08-26T17:32:54.386Z,12.20
2022-08-26T17:35:42.919Z,11.57
2022-08-26T17:38:31.437Z,11.40
2022-08-26T17:41:19.941Z,11.73
2022-08-26T17:44:09.512Z,9.73
2022-08-26T17:46:59.265Z,9.57
2022-08-26T17:49:47.769Z,10.70
2022-08-26T17:52:36.467Z,10.83
2022-08-26T17:55:24.957Z,10.53
2022-08-26T17:58:14.584Z,9.27
2022-08-26T18:01:04.301Z,7.83
2022-08-26T18:04:00.102Z,8.97
2022-08-26T18:06:49.555Z,10.37
2022-08-26T18:09:38.057Z,13.87
2022-08-26T18:12:26.544Z,8.10
2022-08-26T18:15:18.452Z,9.73
2022-08-26T18:18:07.180Z,10.77
2022-08-26T18:21:01.890Z,9.17
2022-08-26T18:23:50.893Z,9.27
2022-08-26T18:26:41.165Z,10.03
2022-08-26T18:29:29.737Z,9.53
2022-08-26T18:32:18.304Z,9.63
2022-08-26T18:35:08.219Z,10.80
2022-08-26T18:37:58.487Z,9.70
2022-08-26T18:40:59.496Z,12.17
2022-08-26T18:43:48.064Z,10.40
2022-08-26T18:46:36.877Z,12.40
2022-08-26T18:49:25.429Z,14.43
2022-08-26T18:52:13.925Z,17.03
2022-08-26T18:55:04.619Z,16.17
2022-08-26T18:57:53.129Z,14.77
2022-08-26T19:00:41.616Z,15.73
2022-08-26T19:03:30.139Z,13.50
2022-08-26T19:06:20.675Z,14.47
2022-08-26T19:09:11.917Z,14.60
2022-08-26T19:12:05.324Z,13.10
2022-08-26T19:14:54.455Z,12.87
2022-08-26T19:17:42.946Z,14.77
2022-08-26T19:20:31.501Z,13.17
2022-08-26T19:23:31.320Z,14.27
2022-08-26T19:26:20.702Z,13.10
2022-08-26T19:29:10.613Z,12.60
2022-08-26T19:31:58.955Z,15.87
2022-08-26T19:34:47.452Z,14.43
2022-08-26T19:37:35.984Z,12.67
2022-08-26T19:40:25.361Z,13.23
2022-08-26T19:43:13.888Z,14.17
2022-08-26T19:46:09.369Z,16.90
2022-08-26T19:48:58.544Z,21.53
2022-08-26T19:51:47.003Z,17.53
2022-08-26T19:54:36.222Z,20.87
2022-08-26T19:57:24.663Z,20.97
2022-08-26T20:00:15.721Z,22.17
2022-08-26T20:03:05.708Z,16.63
2022-08-26T20:05:54.363Z,17.20
2022-08-26T20:08:43.446Z,20.80
2022-08-26T20:11:32.686Z,20.67
2022-08-26T20:14:23.131Z,20.10
2022-08-26T20:17:11.760Z,19.07
2022-08-26T20:20:33.401Z,22.03
2022-08-26T20:23:22.270Z,22.33
2022-08-26T20:26:10.762Z,22.20
2022-08-26T20:28:59.331Z,20.00
2022-08-26T20:31:47.986Z,21.93
2022-08-26T20:34:36.950Z,21.43
2022-08-26T20:37:26.839Z,19.70
2022-08-26T20:40:15.456Z,21.37
2022-08-26T20:43:05.957Z,21.37
2022-08-26T20:45:54.584Z,20.97
2022-08-26T20:48:43.210Z,21.33
2022-08-26T20:51:32.206Z,26.13
2022-08-26T20:54:27.530Z,21.97
2022-08-26T20:57:16.766Z,23.30
2022-08-26T21:00:07.152Z,22.30
2022-08-26T21:02:56.553Z,22.77
2022-08-26T21:05:45.209Z,21.83
2022-08-26T21:08:33.651Z,23.30
2022-08-26T21:11:23.647Z,23.80
2022-08-26T21:14:15.956Z,22.20
2022-08-26T21:17:05.503Z,21.13
2022-08-26T21:19:54.137Z,21.23
2022-08-26T21:22:42.797Z,22.50
2022-08-26T21:25:31.320Z,22.17
2022-08-26T21:28:21.215Z,22.03
2022-08-26T21:31:11.994Z,21.40
2022-08-26T21:34:00.608Z,20.70
2022-08-26T21:36:49.613Z,21.47
2022-08-26T21:39:38.165Z,22.90
2022-08-26T21:42:28.584Z,22.57
2022-08-26T21:45:18.657Z,22.07
2022-08-26T21:48:07.866Z,21.23
2022-08-26T21:50:57.219Z,21.90
2022-08-26T21:53:45.752Z,21.90
2022-08-26T21:56:36.537Z,22.00
2022-08-26T21:59:25.219Z,20.57
2022-08-26T22:02:15.599Z,20.53
2022-08-26T22:05:04.315Z,21.00
2022-08-26T22:07:52.967Z,23.27
2022-08-26T22:10:41.578Z,21.97
2022-08-26T22:13:31.747Z,21.07
2022-08-26T22:16:20.342Z,22.23
2022-08-26T22:19:17.224Z,22.93
2022-08-26T22:22:06.122Z,20.97
2022-08-26T22:24:54.663Z,20.30
2022-08-26T22:27:43.084Z,20.47
2022-08-26T22:30:31.619Z,19.87
2022-08-26T22:33:20.145Z,19.77
2022-08-26T22:36:16.451Z,22.00
2022-08-26T22:39:05.180Z,21.20
2022-08-26T22:41:55.153Z,21.30
2022-08-26T22:44:44.063Z,19.00
2022-08-26T22:47:32.624Z,19.70
2022-08-26T22:50:24.403Z,21.00
2022-08-26T22:53:14.372Z,19.90
2022-08-26T22:56:03.020Z,21.73
2022-08-26T22:58:51.688Z,20.27
2022-08-26T23:01:42.039Z,20.67
2022-08-26T23:04:30.638Z,20.73
2022-08-26T23:07:19.556Z,20.87
2022-08-26T23:10:10.866Z,21.70
2022-08-26T23:12:59.585Z,19.60
2022-08-26T23:15:48.067Z,19.77
2022-08-26T23:18:36.772Z,19.67
2022-08-26T23:21:25.224Z,21.03
2022-08-26T23:24:13.771Z,21.67
2022-08-26T23:27:03.729Z,20.13
2022-08-26T23:29:52.450Z,20.10
2022-08-26T23:32:40.985Z,19.13
2022-08-26T23:35:28.634Z,22.77
2022-08-26T23:38:17.246Z,17.97
2022-08-26T23:41:05.931Z,17.73
2022-08-26T23:43:55.850Z,17.70
2022-08-26T23:46:44.321Z,19.17
2022-08-26T23:49:33.012Z,17.70
2022-08-26T23:52:39.343Z,17.93
2022-08-26T23:55:27.929Z,17.93
2022-08-26T23:58:16.628Z,18.07
